Weather observations for the past three days for
Nadi International Airport
| Date | Time (+12) | Wind (mph) | Vis. (mi.) | Weather | Sky Cond. | Temperature (ºF) | Relative Humidity | Wind Chill (°F) | Heat Index (°F) | Pressure | Precipitation (in) | ||||||
|---|---|---|---|---|---|---|---|---|---|---|---|---|---|---|---|---|---|
| Air | Dwpt | 6 hour | altimeter (in) | sea level (mb) | 1 hr | 3 hr | 6 hr | ||||||||||
| Max. | Min. | ||||||||||||||||
| 08 | 20:00 | Calm | 0.00 | A Few Clouds | FEW030 | 75.2 | 68 | 78% | 76 | 0 | 0.0 | ||||||
| 08 | 19:00 | Calm | 0.00 | A Few Clouds | FEW030 | 78.8 | 68 | 70% | 81 | 0 | 0.0 | ||||||
| 08 | 18:00 | SW 5 | 0.00 | A Few Clouds | FEW030 | 80.6 | 68 | 66% | 83 | 0 | 0.0 | ||||||
| 08 | 17:00 | NW 5 | 0.00 | A Few Clouds | FEW030 | 82.4 | 68 | 62% | 85 | 0 | 0.0 | ||||||
| 08 | 16:00 | NW 9 | 0.00 | A Few Clouds | FEW030 | 84.2 | 69.8 | 62% | 88 | 0 | 0.0 | ||||||
| 08 | 15:00 | NW 10 | 0.00 | A Few Clouds | FEW030 | 82.4 | 69.8 | 66% | 86 | 0 | 0.0 | ||||||
| 08 | 14:00 | NW 12 | 0.00 | A Few Clouds | FEW030 | 84.2 | 69.8 | 62% | 88 | 0 | 0.0 | ||||||
| 08 | 13:00 | W 10 | 0.00 | Partly Cloudy | FEW030 SCT050 | 84.2 | 69.8 | 62% | 88 | 0 | 0.0 | ||||||
| 08 | 12:00 | NW 6 | 0.00 | Partly Cloudy | FEW030 SCT050 | 84.2 | 68 | 58% | 87 | 0 | 0.0 | ||||||
| 08 | 11:00 | E 6 | 0.00 | A Few Clouds | FEW030 | 84.2 | 66.2 | 55% | 87 | 0 | 0.0 | ||||||
| 08 | 10:00 | E 5 | 0.00 | A Few Clouds | FEW030 | 82.4 | 68 | 62% | 85 | 0 | 0.0 | ||||||
| 08 | 09:00 | SE 7 | 0.00 | A Few Clouds | FEW030 | 80.6 | 66.2 | 62% | 83 | 0 | 0.0 | ||||||
| 08 | 08:00 | SE 6 | 0.00 | A Few Clouds | FEW030 | 77 | 66.2 | 69% | 79 | 0 | 0.0 | ||||||
| 08 | 07:00 | SE 8 | 0.00 | A Few Clouds | FEW030 | 75.2 | 64.4 | 69% | 77 | 0 | 0.0 | ||||||
| 08 | 06:00 | SE 5 | 0.00 | A Few Clouds | FEW030 | 73.4 | 66.2 | 78% | 0 | 0.0 | |||||||
| 08 | 05:00 | S 8 | 0.00 | A Few Clouds | FEW030 | 73.4 | 66.2 | 78% | 0 | 0.0 | |||||||
| 08 | 04:00 | S 7 | 0.00 | A Few Clouds | FEW030 | 73.4 | 66.2 | 78% | 0 | 0.0 | |||||||
| 08 | 03:00 | S 7 | 0.00 | A Few Clouds | FEW030 | 73.4 | 64.4 | 74% | 0 | 0.0 | |||||||
| 08 | 02:00 | S 7 | 0.00 | A Few Clouds | FEW030 | 73.4 | 66.2 | 78% | 0 | 0.0 | |||||||
| 08 | 01:00 | S 8 | 0.00 | A Few Clouds | FEW030 | 73.4 | 68 | 83% | 0 | 0.0 | |||||||
| 08 | 00:00 | SE 6 | 0.00 | A Few Clouds | FEW030 | 75.2 | 66.2 | 74% | 77 | 0 | 0.0 | ||||||
| 07 | 23:00 | S 8 | 0.00 | A Few Clouds | FEW030 | 75.2 | 68 | 78% | 76 | 0 | 0.0 | ||||||
| 07 | 22:00 | SE 8 | 0.00 | A Few Clouds | FEW030 | 75.2 | 68 | 78% | 76 | 0 | 0.0 | ||||||
| 07 | 21:00 | S 8 | 0.00 | A Few Clouds | FEW030 | 75.2 | 68 | 78% | 76 | 0 | 0.0 | ||||||
| 07 | 20:00 | SE 7 | 0.00 | A Few Clouds | FEW030 | 77 | 68 | 74% | 79 | 0 | 0.0 | ||||||
| 07 | 19:00 | S 6 | 0.00 | Partly Cloudy | FEW028 SCT048 | 78.8 | 69.8 | 74% | 81 | 0 | 0.0 | ||||||
| 07 | 18:00 | Vrbl 2 | 0.00 | Partly Cloudy | FEW028 SCT048 | 80.6 | 71.6 | 74% | 85 | 0 | 0.0 | ||||||
| 07 | 17:00 | N 5 | 0.00 | Partly Cloudy | SCT030 | 84.2 | 71.6 | 66% | 90 | 0 | 0.0 | ||||||
| 07 | 16:00 | N 9 | 0.00 | Partly Cloudy | SCT030 | 84.2 | 71.6 | 66% | 90 | 0 | 0.0 | ||||||
| 07 | 15:00 | N 13 | 0.00 | Partly Cloudy | SCT030 | 84.2 | 71.6 | 66% | 90 | 0 | 0.0 | ||||||
| 07 | 14:00 | NW 13 | 0.00 | A Few Clouds | FEW030 | 86 | 71.6 | 62% | 92 | 0 | 0.0 | ||||||
| 07 | 13:00 | Calm | 0.00 | A Few Clouds | FEW030 | 87.8 | 66.2 | 49% | 90 | 0 | 0.0 | ||||||
| 07 | 12:00 | SE 7 | 0.00 | A Few Clouds | FEW030 | 86 | 69.8 | 59% | 91 | 0 | 0.0 | ||||||
| 07 | 11:00 | SE 12 | 0.00 | A Few Clouds | FEW030 | 84.2 | 68 | 58% | 87 | 0 | 0.0 | ||||||
| 07 | 10:00 | SE 12 | 0.00 | A Few Clouds | FEW030 | 82.4 | 68 | 62% | 85 | 0 | 0.0 | ||||||
| 07 | 09:00 | SE 9 | 0.00 | A Few Clouds | FEW030 | 80.6 | 69.8 | 70% | 84 | 0 | 0.0 | ||||||
| 07 | 08:00 | SE 6 | 0.00 | A Few Clouds | FEW030 | 75.2 | 69.8 | 83% | 75 | 0 | 0.0 | ||||||
| 07 | 07:00 | S 7 | 0.00 | A Few Clouds | FEW030 | 71.6 | 68 | 88% | 0 | 0.0 | |||||||
| 07 | 06:00 | SE 5 | 0.00 | A Few Clouds | FEW030 | 69.8 | 68 | 94% | 0 | 0.0 | |||||||
| 07 | 05:00 | Calm | 0.00 | A Few Clouds | FEW030 | 69.8 | 66.2 | 88% | 0 | 0.0 | |||||||
| 07 | 04:00 | Calm | 0.00 | A Few Clouds | FEW030 | 71.6 | 68 | 88% | 0 | 0.0 | |||||||
| 07 | 03:00 | SE 3 | 0.00 | A Few Clouds | FEW030 | 71.6 | 68 | 88% | 0 | 0.0 | |||||||
| 07 | 02:00 | Calm | 0.00 | A Few Clouds | FEW030 | 71.6 | 68 | 88% | 0 | 0.0 | |||||||
| 07 | 01:00 | Calm | 0.00 | A Few Clouds | FEW030 | 73.4 | 69.8 | 89% | 0 | 0.0 | |||||||
| 07 | 00:00 | S 5 | 0.00 | A Few Clouds | FEW030 | 73.4 | 69.8 | 89% | 0 | 0.0 | |||||||
| 06 | 23:00 | S 5 | 0.00 | A Few Clouds | FEW030 | 75.2 | 68 | 78% | 76 | 0 | 0.0 | ||||||
| 06 | 22:00 | Calm | 0.00 | A Few Clouds | FEW030 | 75.2 | 68 | 78% | 76 | 0 | 0.0 | ||||||
| 06 | 21:00 | S 6 | 0.00 | A Few Clouds | FEW030 | 75.2 | 68 | 78% | 76 | 0 | 0.0 | ||||||
| 06 | 20:00 | SE 5 | 0.00 | A Few Clouds | FEW030 | 77 | 68 | 74% | 79 | 0 | 0.0 | ||||||
| 06 | 19:00 | SE 12 | 0.00 | A Few Clouds | FEW030 | 78.8 | 68 | 70% | 81 | 0 | 0.0 | ||||||
| 06 | 18:00 | E 7 | 0.00 | A Few Clouds | FEW030 | 80.6 | 68 | 66% | 83 | 0 | 0.0 | ||||||
| 06 | 17:00 | SE 13 | 0.00 | Partly Cloudy | FEW030 SCT050 | 82.4 | 68 | 62% | 85 | 0 | 0.0 | ||||||
| 06 | 16:00 | S 12 | 0.00 | Partly Cloudy | FEW030 SCT050 | 84.2 | 69.8 | 62% | 88 | 0 | 0.0 | ||||||
| 06 | 15:00 | SE 10 | 0.00 | Partly Cloudy | FEW030 SCT050 | 86 | 71.6 | 62% | 92 | 0 | 0.0 | ||||||
| 06 | 14:00 | S 10 | 0.00 | Partly Cloudy | SCT028 SCT048 | 86 | 71.6 | 62% | 92 | 0 | 0.0 | ||||||
| 06 | 13:00 | SE 16 | 0.00 | Mostly Cloudy | SCT028 BKN048 | 86 | 69.8 | 59% | 91 | 0 | 0.0 | ||||||
| 06 | 12:00 | S 14 | 0.00 | Partly Cloudy | FEW030 SCT050 | 84.2 | 68 | 58% | 87 | 0 | 0.0 | ||||||
| 06 | 11:00 | S 9 | 0.00 | Partly Cloudy | FEW028 SCT050 | 84.2 | 69.8 | 62% | 88 | 0 | 0.0 | ||||||
| 06 | 10:00 | SE 10 | 0.00 | Partly Cloudy | FEW028 SCT050 | 82.4 | 69.8 | 66% | 86 | 0 | 0.0 | ||||||
| 06 | 09:00 | Vrbl 2 | 0.00 | A Few Clouds | FEW030 | 78.8 | 68 | 70% | 81 | 0 | 0.0 | ||||||
| 06 | 08:00 | E 5 | 0.00 | A Few Clouds | FEW030 | 75.2 | 69.8 | 83% | 75 | 0 | 0.0 | ||||||
| 06 | 07:00 | Vrbl 2 | 0.00 | A Few Clouds | FEW030 | 71.6 | 68 | 88% | 0 | 0.0 | |||||||
| 06 | 06:00 | SE 3 | 0.00 | A Few Clouds | FEW030 | 69.8 | 66.2 | 88% | 0 | 0.0 | |||||||
| 06 | 05:00 | NE 3 | 0.00 | A Few Clouds | FEW030 | 69.8 | 66.2 | 88% | 0 | 0.0 | |||||||
| 06 | 04:00 | S 3 | 0.00 | A Few Clouds | FEW030 | 69.8 | 68 | 94% | 0 | 0.0 | |||||||
| 06 | 03:00 | S 6 | 0.00 | A Few Clouds | FEW030 | 71.6 | 68 | 88% | 0 | 0.0 | |||||||
| 06 | 02:00 | S 5 | 0.00 | A Few Clouds | FEW030 | 71.6 | 68 | 88% | 0 | 0.0 | |||||||
| 06 | 01:00 | SE 7 | 0.00 | A Few Clouds | FEW030 | 73.4 | 66.2 | 78% | 0 | 0.0 | |||||||
| 06 | 00:00 | SE 8 | 0.00 | A Few Clouds | FEW030 | 73.4 | 68 | 83% | 0 | 0.0 | |||||||
| 05 | 23:00 | SE 8 | 0.00 | A Few Clouds | FEW030 | 75.2 | 66.2 | 74% | 77 | 0 | 0.0 | ||||||
| 05 | 22:00 | SE 10 | 0.00 | A Few Clouds | FEW030 | 75.2 | 68 | 78% | 76 | 0 | 0.0 | ||||||
| 05 | 21:00 | SE 5 | 0.00 | A Few Clouds | FEW028 | 75.2 | 69.8 | 83% | 75 | 0 | 0.0 | ||||||
| Date | Time (+12) | Wind (mph) | Vis. (mi.) | Weather | Sky Cond. | Air | Dwpt | Max. | Min. | Relative Humidity | Wind Chill (°F) | Heat Index (°F) | altimeter (in) | sea level (mb) | 1 hr | 3 hr | 6 hr |
| 6 hour | |||||||||||||||||
| Temperature (ºF) | Pressure | Precipitation (in) | |||||||||||||||